CKQ6 weather

Erickson Municipal Airport
Erickson, Manitoba, Canada

Public forecast

Using degrees Celsius for public forecast. Weather courtesy of forecast.io.

METAR (pilot weather report)

Closest report is Brandon Municipal Airport, 35.4 nm (65.7 km) S. Retrieved 2019/05/19 18:00 UTC (35 minutes ago):

CYBR 191800Z 07015G26KT 15SM SCT045 BKN250 12/M02 A3015 RMK SC3CI4 SLP225

TAF (pilot weather forecast)

Closest forecast is Brandon Municipal Airport, 35.4 nm (65.7 km) S. Retrieved 2019/05/19 18:39 UTC (0 seconds ago):

TAF TAF CYBR 191738Z 1918/2006 06018G28KT P6SM SCT050 BKN250 TEMPO 1918/1921 BKN050 BKN250 BECMG 2000/2002 06010KT FM200400 05008KT P6SM SCT250 RMK NXT FCST BY 200000Z